createdAt,value
2022-11-24T00:01:16.464Z,100301.69
2022-11-24T00:03:46.351Z,100310.97
2022-11-24T00:06:15.875Z,100312.94
2022-11-24T00:08:46.500Z,100321.97
2022-11-24T00:11:20.083Z,100316.34
2022-11-24T00:13:48.132Z,100320.88
2022-11-24T00:16:25.165Z,100328.44
2022-11-24T00:18:55.013Z,100332.28
2022-11-24T00:21:23.497Z,100340.84
2022-11-24T00:23:52.057Z,100341.22
2022-11-24T00:26:24.780Z,100343.13
2022-11-24T00:28:55.811Z,100339.16
2022-11-24T00:31:26.370Z,100341.59
2022-11-24T00:33:56.487Z,100347.34
2022-11-24T00:36:26.409Z,100352.09
2022-11-24T00:38:59.351Z,100352.75
2022-11-24T00:41:28.738Z,100361.81
2022-11-24T00:43:58.458Z,100356.91
2022-11-24T00:46:27.089Z,100355.16
2022-11-24T00:48:55.583Z,100359.81
2022-11-24T00:51:30.209Z,100349.19
2022-11-24T00:53:58.729Z,100353.31
2022-11-24T00:56:28.005Z,100346.97
2022-11-24T00:58:56.306Z,100354.19
2022-11-24T01:01:27.112Z,100355.31
2022-11-24T01:03:55.855Z,100356.97
2022-11-24T01:06:25.871Z,100351.16
2022-11-24T01:08:54.998Z,100345.75
2022-11-24T01:11:28.596Z,100353.41
2022-11-24T01:13:59.141Z,100377.81
2022-11-24T01:16:33.478Z,100383.56
2022-11-24T01:19:01.645Z,100385.72
2022-11-24T01:21:29.606Z,100384.63
2022-11-24T01:23:57.836Z,100384.63
2022-11-24T01:26:26.003Z,100389.69
2022-11-24T01:28:55.808Z,100390.00
2022-11-24T01:31:24.634Z,100385.59
2022-11-24T01:33:52.626Z,100389.03
2022-11-24T01:36:20.880Z,100395.41
2022-11-24T01:38:49.144Z,100402.97
2022-11-24T01:41:25.068Z,100399.75
2022-11-24T01:43:55.382Z,100400.53
2022-11-24T01:46:34.231Z,100392.28
2022-11-24T01:49:04.845Z,100396.47
2022-11-24T01:51:37.086Z,100386.75
2022-11-24T01:54:16.467Z,100392.88
2022-11-24T01:56:48.203Z,100397.88
2022-11-24T01:59:18.310Z,100402.50
2022-11-24T02:01:48.605Z,100405.03
2022-11-24T02:04:20.525Z,100400.22
2022-11-24T02:06:48.873Z,100408.53
2022-11-24T02:09:32.735Z,100413.53
2022-11-24T02:12:02.086Z,100405.94
2022-11-24T02:14:30.509Z,100405.22
2022-11-24T02:16:58.226Z,100413.25
2022-11-24T02:19:35.789Z,100416.50
2022-11-24T02:22:04.434Z,100423.44
2022-11-24T02:24:50.574Z,100420.41
2022-11-24T02:27:20.005Z,100423.06
2022-11-24T02:29:49.194Z,100427.13
2022-11-24T02:32:18.343Z,100432.63
2022-11-24T02:34:46.133Z,100438.28
2022-11-24T02:37:13.753Z,100441.34
2022-11-24T02:39:41.309Z,100446.59
2022-11-24T02:42:12.908Z,100458.38
2022-11-24T02:44:45.424Z,100454.25
2022-11-24T02:47:13.166Z,100456.78
2022-11-24T02:49:40.721Z,100459.66
2022-11-24T02:52:08.862Z,100454.00
2022-11-24T02:54:37.140Z,100458.94
2022-11-24T02:57:05.256Z,100450.84
2022-11-24T02:59:33.397Z,100455.84
2022-11-24T03:02:01.325Z,100454.88
2022-11-24T03:04:29.013Z,100465.38
2022-11-24T03:06:57.655Z,100462.59
2022-11-24T03:09:25.657Z,100469.88
2022-11-24T03:11:53.544Z,100465.38
2022-11-24T03:14:21.507Z,100459.38
2022-11-24T03:16:49.472Z,100466.41
2022-11-24T03:19:16.926Z,100466.41
2022-11-24T03:21:44.425Z,100475.22
2022-11-24T03:24:11.900Z,100482.13
2022-11-24T03:26:40.017Z,100485.84
2022-11-24T03:29:08.773Z,100495.22
2022-11-24T03:31:36.874Z,100495.16
2022-11-24T03:34:04.453Z,100490.13
2022-11-24T03:36:31.956Z,100490.69
2022-11-24T03:38:59.411Z,100492.06
2022-11-24T03:41:26.901Z,100493.91
2022-11-24T03:43:54.914Z,100484.34
2022-11-24T03:46:22.594Z,100489.53
2022-11-24T03:48:50.161Z,100485.91
2022-11-24T03:51:18.285Z,100487.53
2022-11-24T03:53:46.029Z,100482.09
2022-11-24T03:56:14.424Z,100486.69
2022-11-24T03:58:41.953Z,100479.03
2022-11-24T04:01:09.643Z,100485.78
2022-11-24T04:03:38.136Z,100487.84
2022-11-24T04:06:06.064Z,100482.81
2022-11-24T04:08:34.535Z,100489.53
2022-11-24T04:11:02.487Z,100490.97
2022-11-24T04:13:30.380Z,100493.06
2022-11-24T04:15:57.912Z,100502.75
2022-11-24T04:18:25.419Z,100504.69
2022-11-24T04:20:53.092Z,100513.50
2022-11-24T04:23:20.654Z,100503.41
2022-11-24T04:25:48.806Z,100513.81
2022-11-24T04:28:16.494Z,100518.75
2022-11-24T04:30:45.136Z,100517.41
2022-11-24T04:33:13.442Z,100513.31
2022-11-24T04:35:41.017Z,100516.06
2022-11-24T04:38:08.655Z,100521.75
2022-11-24T04:40:36.925Z,100517.69
2022-11-24T04:43:04.841Z,100523.59
2022-11-24T04:45:32.844Z,100517.69
2022-11-24T04:48:00.295Z,100511.56
2022-11-24T04:50:27.801Z,100528.97
2022-11-24T04:52:55.748Z,100528.91
2022-11-24T04:55:23.741Z,100526.31
2022-11-24T04:57:51.223Z,100538.31
2022-11-24T05:00:19.540Z,100553.00
2022-11-24T05:02:47.307Z,100546.13
2022-11-24T05:05:15.190Z,100552.28
2022-11-24T05:07:42.721Z,100548.22
2022-11-24T05:10:28.818Z,100552.00
2022-11-24T05:12:59.697Z,100552.75
2022-11-24T05:15:27.789Z,100556.41
2022-11-24T05:17:55.944Z,100560.63
2022-11-24T05:20:24.019Z,100571.59
2022-11-24T05:22:51.876Z,100585.53
2022-11-24T05:25:19.552Z,100580.63
2022-11-24T05:27:47.088Z,100587.78
2022-11-24T05:30:14.919Z,100596.66
2022-11-24T05:32:42.701Z,100595.69
2022-11-24T05:35:10.616Z,100604.81
2022-11-24T05:37:38.770Z,100603.59
2022-11-24T05:40:07.459Z,100606.97
2022-11-24T05:42:46.653Z,100625.19
2022-11-24T05:45:20.254Z,100633.09
2022-11-24T05:47:50.070Z,100651.03
2022-11-24T05:50:20.003Z,100656.59
2022-11-24T05:52:48.740Z,100672.19
2022-11-24T05:55:16.416Z,100678.91
2022-11-24T05:57:45.347Z,100691.25
2022-11-24T06:00:13.922Z,100690.22
2022-11-24T06:02:42.192Z,100686.19
2022-11-24T06:05:10.241Z,100686.84
2022-11-24T06:07:37.767Z,100688.34
2022-11-24T06:10:05.693Z,100684.97
2022-11-24T06:12:33.611Z,100695.38
2022-11-24T06:15:01.232Z,100697.91
2022-11-24T06:17:29.304Z,100704.19
2022-11-24T06:19:56.917Z,100705.59
2022-11-24T06:22:24.564Z,100707.16
2022-11-24T06:24:52.252Z,100707.66
2022-11-24T06:27:19.724Z,100721.00
2022-11-24T06:29:47.726Z,100710.06
2022-11-24T06:32:15.330Z,100715.88
2022-11-24T06:34:44.041Z,100722.97
2022-11-24T06:37:11.568Z,100732.41
2022-11-24T06:39:39.072Z,100729.69
2022-11-24T06:42:06.664Z,100722.03
2022-11-24T06:44:34.442Z,100726.78
2022-11-24T06:47:02.234Z,100724.56
2022-11-24T06:49:30.228Z,100736.00
2022-11-24T06:51:57.690Z,100727.53
2022-11-24T06:54:25.571Z,100723.72
2022-11-24T06:56:58.040Z,100716.22
2022-11-24T06:59:26.602Z,100729.09
2022-11-24T07:01:54.150Z,100743.56
2022-11-24T07:04:22.107Z,100742.59
2022-11-24T07:06:49.945Z,100747.25
2022-11-24T07:09:17.868Z,100756.28
2022-11-24T07:11:45.992Z,100765.44
2022-11-24T07:14:13.606Z,100762.34
2022-11-24T07:16:41.221Z,100749.91
2022-11-24T07:19:10.021Z,100755.81
2022-11-24T07:21:37.992Z,100756.88
2022-11-24T07:24:06.385Z,100770.88
2022-11-24T07:26:37.475Z,100782.28
2022-11-24T07:29:05.718Z,100783.41
2022-11-24T07:31:33.471Z,100784.16
2022-11-24T07:34:01.572Z,100777.31
2022-11-24T07:36:29.082Z,100789.25
2022-11-24T07:38:56.673Z,100799.84
2022-11-24T07:41:24.228Z,100803.16
2022-11-24T07:43:51.973Z,100803.84
2022-11-24T07:46:20.499Z,100803.59
2022-11-24T07:48:48.371Z,100800.63
2022-11-24T07:51:16.468Z,100801.19
2022-11-24T07:53:45.716Z,100803.09
2022-11-24T07:56:13.758Z,100812.03
2022-11-24T07:58:41.530Z,100820.41
2022-11-24T08:01:18.809Z,100818.91
2022-11-24T08:03:46.949Z,100828.56
2022-11-24T08:06:25.445Z,100836.34
2022-11-24T08:08:55.972Z,100839.75
2022-11-24T08:11:24.054Z,100841.31
2022-11-24T08:13:51.918Z,100845.25
2022-11-24T08:16:20.980Z,100841.69
2022-11-24T08:18:56.467Z,100845.56
2022-11-24T08:21:24.611Z,100833.72
2022-11-24T08:23:58.404Z,100834.97
2022-11-24T08:26:26.342Z,100850.91
2022-11-24T08:28:56.515Z,100854.19
2022-11-24T08:31:27.580Z,100849.97
2022-11-24T08:33:56.122Z,100838.50
2022-11-24T08:36:23.674Z,100841.59
2022-11-24T08:38:55.873Z,100837.38
2022-11-24T08:41:24.127Z,100841.34
2022-11-24T08:43:52.128Z,100846.88
2022-11-24T08:46:19.992Z,100845.03
2022-11-24T08:48:50.234Z,100842.69
2022-11-24T08:51:20.928Z,100854.72
2022-11-24T08:53:48.893Z,100859.69
2022-11-24T08:56:16.412Z,100866.59
2022-11-24T08:58:44.487Z,100870.84
2022-11-24T09:01:15.350Z,100872.19
2022-11-24T09:03:50.456Z,100864.84
2022-11-24T09:06:25.949Z,100854.16
2022-11-24T09:08:54.564Z,100859.56
2022-11-24T09:11:23.920Z,100858.81
2022-11-24T09:13:51.936Z,100872.91
2022-11-24T09:16:22.656Z,100874.59
2022-11-24T09:18:58.858Z,100878.53
2022-11-24T09:21:27.717Z,100877.16
2022-11-24T09:23:55.737Z,100875.84
2022-11-24T09:26:28.961Z,100876.97
2022-11-24T09:28:58.174Z,100875.88
2022-11-24T09:31:28.237Z,100875.06
2022-11-24T09:33:56.391Z,100871.88
2022-11-24T09:36:24.729Z,100873.69
2022-11-24T09:38:53.275Z,100874.19
2022-11-24T09:41:36.542Z,100868.31
2022-11-24T09:44:12.761Z,100873.59
2022-11-24T09:46:59.845Z,100864.28
2022-11-24T09:49:35.203Z,100857.91
2022-11-24T09:52:09.921Z,100853.22
2022-11-24T09:54:41.653Z,100857.97
2022-11-24T09:57:12.856Z,100843.94
2022-11-24T09:59:42.317Z,100844.47
2022-11-24T10:02:13.539Z,100853.66
2022-11-24T10:04:46.957Z,100849.75
2022-11-24T10:07:38.252Z,100847.41
2022-11-24T10:10:28.488Z,100852.53
2022-11-24T10:13:28.347Z,100856.66
2022-11-24T10:16:17.866Z,100872.03
2022-11-24T10:19:00.978Z,100870.94
2022-11-24T10:21:28.537Z,100873.88
2022-11-24T10:24:00.087Z,100872.16
2022-11-24T10:26:36.850Z,100863.72
2022-11-24T10:29:20.775Z,100866.28
2022-11-24T10:31:51.469Z,100861.13
2022-11-24T10:34:28.851Z,100860.59
2022-11-24T10:37:26.477Z,100855.41
2022-11-24T10:40:04.166Z,100856.78
2022-11-24T10:42:40.448Z,100859.22
2022-11-24T10:45:17.884Z,100867.72
2022-11-24T10:47:46.991Z,100866.00
2022-11-24T10:50:21.862Z,100867.91
2022-11-24T10:53:08.175Z,100872.94
2022-11-24T10:56:06.014Z,100868.88
2022-11-24T10:58:39.321Z,100864.88
2022-11-24T11:01:12.917Z,100870.13
2022-11-24T11:03:48.057Z,100870.25
2022-11-24T11:06:23.675Z,100874.72
2022-11-24T11:09:17.809Z,100877.94
2022-11-24T11:11:49.238Z,100870.44
2022-11-24T11:14:32.985Z,100861.91
2022-11-24T11:17:00.557Z,100848.94
2022-11-24T11:20:00.089Z,100855.06
2022-11-24T11:22:32.929Z,100866.44
2022-11-24T11:25:07.320Z,100867.63
2022-11-24T11:27:35.388Z,100871.81
2022-11-24T11:36:11.394Z,100858.06
2022-11-24T11:38:40.766Z,100857.34
2022-11-24T11:41:19.525Z,100855.41
2022-11-24T11:43:51.204Z,100856.63
2022-11-24T11:46:18.973Z,100846.59
2022-11-24T11:48:48.115Z,100856.38
2022-11-24T11:51:54.585Z,100844.78
2022-11-24T11:54:34.719Z,100854.66
2022-11-24T11:57:17.439Z,100854.13
2022-11-24T11:59:51.316Z,100857.06
2022-11-24T12:02:32.231Z,100845.72
2022-11-24T12:05:06.811Z,100861.34
2022-11-24T12:07:37.417Z,100863.00
2022-11-24T12:10:14.443Z,100870.03
2022-11-24T12:13:06.730Z,100862.50
2022-11-24T12:15:43.786Z,100862.50
2022-11-24T12:18:57.118Z,100857.97
2022-11-24T12:21:34.398Z,100873.38
2022-11-24T12:24:05.386Z,100871.47
2022-11-24T12:26:56.375Z,100870.44
2022-11-24T12:29:36.116Z,100868.81
2022-11-24T12:32:35.065Z,100869.41
2022-11-24T12:35:16.769Z,100865.09
2022-11-24T12:38:12.392Z,100868.72
2022-11-24T12:44:04.512Z,100860.81
2022-11-24T12:47:13.606Z,100867.25
2022-11-24T12:50:06.701Z,100877.78
2022-11-24T12:53:00.949Z,100876.06
2022-11-24T12:55:32.196Z,100868.97
2022-11-24T12:58:00.399Z,100862.44
2022-11-24T13:00:34.577Z,100869.78
2022-11-24T13:03:50.659Z,100881.66
2022-11-24T13:06:45.855Z,100872.50
2022-11-24T13:09:16.889Z,100882.00
2022-11-24T13:12:06.759Z,100886.06
2022-11-24T13:14:38.008Z,100878.59
2022-11-24T13:20:40.802Z,100877.00
2022-11-24T13:23:25.506Z,100886.22
2022-11-24T13:26:30.323Z,100882.84
2022-11-24T13:29:23.898Z,100878.81
2022-11-24T13:31:56.702Z,100877.84
2022-11-24T13:34:39.604Z,100875.09
2022-11-24T13:37:40.834Z,100863.00
2022-11-24T13:40:12.197Z,100864.97
2022-11-24T13:42:55.340Z,100870.59
2022-11-24T13:45:38.824Z,100873.69
2022-11-24T13:48:22.475Z,100882.28
2022-11-24T13:50:51.919Z,100881.41
2022-11-24T13:53:32.234Z,100885.31
2022-11-24T13:56:07.765Z,100880.84
2022-11-24T13:58:38.749Z,100878.00
2022-11-24T14:01:13.345Z,100872.84
2022-11-24T14:04:28.095Z,100873.84
2022-11-24T14:06:45.087Z,100873.16
2022-11-24T14:09:21.960Z,100876.25
2022-11-24T14:12:07.460Z,100881.19
2022-11-24T14:14:35.563Z,100881.16
2022-11-24T14:17:13.491Z,100871.50
2022-11-24T14:19:42.480Z,100865.81
2022-11-24T14:22:20.925Z,100854.38
2022-11-24T14:25:00.687Z,100865.31
2022-11-24T14:27:40.119Z,100859.53
2022-11-24T14:30:08.203Z,100862.56
2022-11-24T14:32:37.888Z,100863.41
2022-11-24T14:35:27.238Z,100863.66
2022-11-24T14:37:56.079Z,100869.00
2022-11-24T14:40:45.155Z,100873.81
2022-11-24T14:43:20.750Z,100874.59
2022-11-24T14:45:55.221Z,100887.75
2022-11-24T14:48:33.227Z,100890.16
2022-11-24T14:51:14.862Z,100900.31
2022-11-24T14:53:49.027Z,100902.63
2022-11-24T14:56:40.509Z,100900.31
2022-11-24T14:59:25.640Z,100896.22
2022-11-24T15:01:53.940Z,100900.25
2022-11-24T15:07:27.232Z,100897.53
2022-11-24T15:10:00.796Z,100905.47
2022-11-24T15:12:42.712Z,100910.66
2022-11-24T15:15:13.911Z,100917.69
2022-11-24T15:17:50.850Z,100921.00
2022-11-24T15:20:27.138Z,100922.34
2022-11-24T15:23:16.100Z,100927.84
2022-11-24T15:25:44.174Z,100929.34
2022-11-24T15:28:12.162Z,100937.75
2022-11-24T15:30:40.248Z,100938.63
2022-11-24T15:33:17.345Z,100938.97
2022-11-24T15:35:45.928Z,100937.38
2022-11-24T15:38:14.057Z,100937.81
2022-11-24T15:40:44.518Z,100937.50
2022-11-24T15:43:38.718Z,100937.53
2022-11-24T15:46:07.758Z,100942.44
2022-11-24T15:48:35.872Z,100943.16
2022-11-24T15:51:07.044Z,100945.00
2022-11-24T15:53:48.165Z,100940.69
2022-11-24T15:56:23.595Z,100935.72
2022-11-24T15:58:51.917Z,100937.91
2022-11-24T16:01:21.774Z,100944.56
2022-11-24T16:03:49.663Z,100943.28
2022-11-24T16:06:24.719Z,100947.22
2022-11-24T16:08:54.293Z,100957.16
2022-11-24T16:11:23.432Z,100961.28
2022-11-24T16:13:53.955Z,100956.06
2022-11-24T16:16:23.470Z,100960.63
2022-11-24T16:18:51.557Z,100967.53
2022-11-24T16:21:19.199Z,100971.81
2022-11-24T16:23:47.833Z,100975.91
2022-11-24T16:26:15.386Z,100970.75
2022-11-24T16:28:45.790Z,100963.06
2022-11-24T16:31:16.260Z,100964.16
2022-11-24T16:33:45.354Z,100961.06
2022-11-24T16:36:14.104Z,100963.75
2022-11-24T16:38:42.150Z,100963.09
2022-11-24T16:41:10.693Z,100968.28
2022-11-24T16:43:38.856Z,100971.59
2022-11-24T16:46:17.356Z,100972.13
2022-11-24T16:48:46.499Z,100969.34
2022-11-24T16:51:35.730Z,100975.44
2022-11-24T16:54:03.781Z,100969.22
2022-11-24T16:56:31.929Z,100968.56
2022-11-24T16:58:59.814Z,100969.97
2022-11-24T17:01:27.847Z,100986.13
2022-11-24T17:03:56.149Z,100999.88
2022-11-24T17:06:23.843Z,101007.16
2022-11-24T17:08:51.381Z,101013.31
2022-11-24T17:11:22.343Z,101019.72
2022-11-24T17:13:50.639Z,101024.59
2022-11-24T17:16:23.311Z,101029.94
2022-11-24T17:18:51.128Z,101024.19
2022-11-24T17:21:24.332Z,101033.22
2022-11-24T17:23:56.637Z,101039.63
2022-11-24T17:26:25.374Z,101043.91
2022-11-24T17:28:54.072Z,101043.53
2022-11-24T17:31:28.816Z,101044.50
2022-11-24T17:33:58.415Z,101046.75
2022-11-24T17:36:27.907Z,101056.25
2022-11-24T17:38:55.924Z,101057.22
2022-11-24T17:41:23.912Z,101046.41
2022-11-24T17:43:55.542Z,101049.00
2022-11-24T17:46:27.888Z,101049.63
2022-11-24T17:48:56.376Z,101056.59
2022-11-24T17:51:25.907Z,101059.69
2022-11-24T17:53:54.765Z,101064.00
2022-11-24T17:56:28.262Z,101061.00
2022-11-24T17:58:58.566Z,101059.38
2022-11-24T18:01:30.242Z,101066.31
2022-11-24T18:03:58.376Z,101070.63
2022-11-24T18:06:28.742Z,101061.78
2022-11-24T18:08:57.789Z,101072.53
2022-11-24T18:11:32.067Z,101080.63
2022-11-24T18:14:02.667Z,101080.94
2022-11-24T18:16:35.317Z,101086.91
2022-11-24T18:19:09.215Z,101085.38
2022-11-24T18:21:43.791Z,101088.13
2022-11-24T18:24:13.052Z,101087.28
2022-11-24T18:26:42.163Z,101086.16
2022-11-24T18:29:11.578Z,101089.81
2022-11-24T18:31:40.289Z,101090.13
2022-11-24T18:34:08.015Z,101087.72
2022-11-24T18:36:35.962Z,101086.28
2022-11-24T18:39:06.047Z,101094.41
2022-11-24T18:41:34.006Z,101099.72
2022-11-24T18:44:03.209Z,101104.56
2022-11-24T18:46:30.919Z,101104.69
2022-11-24T18:48:59.392Z,101108.63
2022-11-24T18:51:27.257Z,101115.69
2022-11-24T18:53:54.899Z,101120.22
2022-11-24T18:56:22.499Z,101118.91
2022-11-24T18:58:56.554Z,101121.19
2022-11-24T19:01:27.001Z,101120.66
2022-11-24T19:03:57.093Z,101133.13
2022-11-24T19:06:29.076Z,101128.06
2022-11-24T19:08:56.876Z,101125.53
2022-11-24T19:11:28.205Z,101129.59
2022-11-24T19:13:56.936Z,101140.13
2022-11-24T19:16:25.278Z,101135.34
2022-11-24T19:18:57.271Z,101142.19
2022-11-24T19:21:24.901Z,101141.47
2022-11-24T19:23:53.143Z,101129.25
2022-11-24T19:26:20.995Z,101140.47
2022-11-24T19:28:49.155Z,101136.41
2022-11-24T19:31:18.862Z,101141.91
2022-11-24T19:33:47.030Z,101134.59
2022-11-24T19:36:17.165Z,101132.06
2022-11-24T19:38:53.759Z,101136.34
2022-11-24T19:41:24.119Z,101136.28
2022-11-24T19:43:55.057Z,101142.41
2022-11-24T19:46:27.200Z,101137.75
2022-11-24T19:48:59.750Z,101143.75
2022-11-24T19:51:33.181Z,101152.56
2022-11-24T19:54:01.750Z,101146.97
2022-11-24T19:56:34.088Z,101156.75
2022-11-24T19:59:04.157Z,101157.63
2022-11-24T20:01:39.880Z,101154.44
2022-11-24T20:04:13.594Z,101156.31
2022-11-24T20:06:44.281Z,101160.94
2022-11-24T20:09:17.915Z,101158.34
2022-11-24T20:11:46.354Z,101169.38
2022-11-24T20:14:15.726Z,101169.13
2022-11-24T20:16:45.624Z,101179.13
2022-11-24T20:19:15.845Z,101185.47
2022-11-24T20:21:47.725Z,101180.75
2022-11-24T20:24:21.585Z,101179.06
2022-11-24T20:26:52.154Z,101174.91
2022-11-24T20:29:20.625Z,101177.66
2022-11-24T20:31:51.380Z,101176.16
2022-11-24T20:34:20.334Z,101184.00
2022-11-24T20:36:48.382Z,101180.63
2022-11-24T20:39:23.883Z,101182.03
2022-11-24T20:41:52.414Z,101185.69
2022-11-24T20:44:22.135Z,101166.75
2022-11-24T20:46:50.299Z,101166.81
2022-11-24T20:49:22.232Z,101167.38
2022-11-24T20:51:54.321Z,101169.25
2022-11-24T20:54:22.221Z,101165.59
2022-11-24T20:56:50.226Z,101168.41
2022-11-24T20:59:21.616Z,101170.94
2022-11-24T21:01:50.205Z,101175.41
2022-11-24T21:04:21.132Z,101180.09
2022-11-24T21:06:49.892Z,101181.22
2022-11-24T21:09:18.375Z,101183.91
2022-11-24T21:11:46.287Z,101197.66
2022-11-24T21:14:14.851Z,101202.44
2022-11-24T21:16:42.922Z,101212.34
2022-11-24T21:19:13.896Z,101211.78
2022-11-24T21:21:42.924Z,101203.97
2022-11-24T21:24:14.827Z,101209.84
2022-11-24T21:26:47.397Z,101211.38
2022-11-24T21:29:22.285Z,101212.19
2022-11-24T21:31:50.461Z,101212.00
2022-11-24T21:34:19.493Z,101215.50
2022-11-24T21:36:47.460Z,101212.41
2022-11-24T21:39:16.414Z,101217.94
2022-11-24T21:41:44.336Z,101228.56
2022-11-24T21:44:13.726Z,101220.41
2022-11-24T21:46:48.193Z,101225.22
2022-11-24T21:49:18.710Z,101221.47
2022-11-24T21:51:47.111Z,101212.91
2022-11-24T21:54:15.286Z,101224.13
2022-11-24T21:56:42.858Z,101228.78
2022-11-24T21:59:10.699Z,101220.28
2022-11-24T22:01:38.335Z,101217.28
2022-11-24T22:04:06.399Z,101218.31
2022-11-24T22:06:34.010Z,101211.84
2022-11-24T22:09:01.690Z,101220.00
2022-11-24T22:11:29.181Z,101217.41
2022-11-24T22:13:56.654Z,101207.59
2022-11-24T22:16:25.997Z,101216.38
2022-11-24T22:18:54.028Z,101217.34
2022-11-24T22:21:24.337Z,101221.75
2022-11-24T22:23:52.819Z,101224.25
2022-11-24T22:26:23.073Z,101228.06
2022-11-24T22:28:51.848Z,101230.00
2022-11-24T22:31:21.931Z,101227.16
2022-11-24T22:33:50.356Z,101223.41
2022-11-24T22:36:20.931Z,101222.44
2022-11-24T22:38:53.945Z,101217.28
2022-11-24T22:41:22.060Z,101223.13
2022-11-24T22:43:50.739Z,101224.72
2022-11-24T22:46:24.266Z,101231.22
2022-11-24T22:48:53.149Z,101229.22
2022-11-24T22:51:25.316Z,101235.47
2022-11-24T22:53:55.587Z,101240.91
2022-11-24T22:56:24.151Z,101241.41
2022-11-24T22:58:51.752Z,101229.81
2022-11-24T23:01:22.094Z,101220.69
2022-11-24T23:03:53.774Z,101217.97
2022-11-24T23:06:26.607Z,101231.44
2022-11-24T23:08:55.822Z,101225.84
2022-11-24T23:11:36.241Z,101221.13
2022-11-24T23:14:07.734Z,101220.28
2022-11-24T23:16:36.282Z,101210.53
2022-11-24T23:19:04.265Z,101210.19
2022-11-24T23:21:34.702Z,101211.38
2022-11-24T23:24:03.594Z,101210.25
2022-11-24T23:26:34.431Z,101222.72
2022-11-24T23:29:02.458Z,101216.66
2022-11-24T23:31:30.865Z,101216.66
2022-11-24T23:34:00.883Z,101214.50
2022-11-24T23:36:30.131Z,101207.78
2022-11-24T23:39:03.006Z,101199.81
2022-11-24T23:41:31.787Z,101190.59
2022-11-24T23:44:00.244Z,101201.13
2022-11-24T23:46:28.816Z,101199.50
2022-11-24T23:48:56.893Z,101207.13
2022-11-24T23:51:32.176Z,101203.47
2022-11-24T23:54:00.699Z,101213.00
2022-11-24T23:56:33.506Z,101203.47
2022-11-24T23:59:03.212Z,101206.22
